Time;durP1;ratioP1;P1;durP2;ratioP2;P2;SDS_P1;SDS_P2;PMS_P1;PMS_P2;Temp;Humidity;BMP_temperature;BMP_pressure;BME280_temperature;BME280_humidity;BME280_pressure;Samples;Min_cycle;Max_cycle;Signal;HPM_P1;HPM_P2
2022/04/14 00:00:31;;;;;;;11.57;5.55;;;;;;;;;;5123628;27;20027;-75
2022/04/14 00:02:56;;;;;;;9.05;6.00;;;;;;;;;;5118906;27;20016;-75
2022/04/14 00:05:22;;;;;;;10.10;5.30;;;;;;;;;;5127256;27;20031;-75
2022/04/14 00:07:47;;;;;;;9.23;5.43;;;;;;;;;;5112787;27;20020;-75
2022/04/14 00:10:13;;;;;;;10.57;5.82;;;;;;;;;;5130297;27;20022;-75
2022/04/14 00:12:38;;;;;;;10.57;5.35;;;;;;;;;;5131931;27;20391;-75
2022/04/14 00:15:04;;;;;;;8.52;5.07;;;;;;;;;;5127489;27;20054;-75
2022/04/14 00:17:32;;;;;;;11.85;5.95;;;;;;;;;;5119804;27;20391;-75
2022/04/14 00:19:57;;;;;;;9.70;5.90;;;;;;;;;;5119256;27;20028;-74
2022/04/14 00:22:22;;;;;;;8.32;5.13;;;;;;;;;;5111062;28;20380;-75
2022/04/14 00:24:48;;;;;;;9.70;5.57;;;;;;;;;;5111640;28;20038;-74
2022/04/14 00:27:16;;;;;;;10.32;5.47;;;;;;;;;;5111735;28;20027;-75
2022/04/14 00:29:41;;;;;;;10.43;6.03;;;;;;;;;;5111899;28;20034;-75
2022/04/14 00:32:07;;;;;;;12.25;5.28;;;;;;;;;;5111608;28;20019;-74
2022/04/14 00:34:32;;;;;;;14.27;6.05;;;;;;;;;;5111712;28;20054;-74
2022/04/14 00:36:58;;;;;;;10.15;5.47;;;;;;;;;;5110943;28;20011;-77
2022/04/14 00:39:23;;;;;;;12.20;5.37;;;;;;;;;;5115443;27;20449;-74
2022/04/14 00:41:48;;;;;;;10.88;5.70;;;;;;;;;;5118781;27;20267;-74
2022/04/14 00:44:13;;;;;;;10.10;5.80;;;;;;;;;;5120461;27;20012;-76
2022/04/14 00:46:39;;;;;;;9.32;5.28;;;;;;;;;;5115875;27;20039;-74
2022/04/14 00:49:04;;;;;;;13.00;5.65;;;;;;;;;;5112869;28;20034;-76
2022/04/14 00:51:29;;;;;;;14.35;6.43;;;;;;;;;;5114341;28;20008;-75
2022/04/14 00:53:54;;;;;;;10.85;5.72;;;;;;;;;;5111644;28;20023;-74
2022/04/14 00:56:20;;;;;;;12.07;5.57;;;;;;;;;;5115619;27;20102;-74
2022/04/14 00:58:45;;;;;;;9.68;5.10;;;;;;;;;;5119598;27;20460;-75
2022/04/14 01:01:12;;;;;;;9.40;6.10;;;;;;;;;;5121313;27;20485;-74
2022/04/14 01:03:37;;;;;;;17.33;6.68;;;;;;;;;;5131090;27;20029;-73
2022/04/14 01:06:03;;;;;;;10.07;5.97;;;;;;;;;;5130255;27;20031;-75
2022/04/14 01:08:29;;;;;;;9.63;5.75;;;;;;;;;;5131459;27;20023;-80
2022/04/14 01:10:55;;;;;;;11.80;5.88;;;;;;;;;;5131737;27;20023;-74
2022/04/14 01:13:21;;;;;;;11.90;7.05;;;;;;;;;;5131560;27;20030;-74
2022/04/14 01:15:47;;;;;;;13.25;6.32;;;;;;;;;;5131859;27;20407;-74
2022/04/14 01:18:12;;;;;;;10.70;6.00;;;;;;;;;;5130819;27;20027;-74
2022/04/14 01:20:38;;;;;;;13.90;6.75;;;;;;;;;;5131707;27;20050;-74
2022/04/14 01:23:04;;;;;;;10.70;5.90;;;;;;;;;;5131205;27;20026;-74
2022/04/14 01:25:30;;;;;;;15.43;6.53;;;;;;;;;;5130840;27;20027;-74
2022/04/14 01:27:55;;;;;;;11.70;6.55;;;;;;;;;;5131265;27;20102;-75
2022/04/14 01:30:21;;;;;;;13.00;6.78;;;;;;;;;;5130686;27;20027;-74
2022/04/14 01:32:47;;;;;;;10.10;6.07;;;;;;;;;;5121865;27;20018;-74
2022/04/14 01:35:12;;;;;;;13.75;6.80;;;;;;;;;;5120556;28;20022;-75
2022/04/14 01:37:37;;;;;;;12.52;6.07;;;;;;;;;;5124984;28;20023;-74
2022/04/14 01:40:03;;;;;;;10.60;6.20;;;;;;;;;;5130858;28;20102;-75
2022/04/14 01:42:29;;;;;;;11.70;5.90;;;;;;;;;;5131493;27;20023;-77
2022/04/14 01:44:54;;;;;;;12.20;6.72;;;;;;;;;;5130136;28;20508;-75
2022/04/14 01:47:19;;;;;;;12.85;6.57;;;;;;;;;;5131479;28;20023;-77
2022/04/14 01:49:44;;;;;;;11.80;6.20;;;;;;;;;;5131388;28;20016;-74
2022/04/14 01:52:10;;;;;;;10.40;6.03;;;;;;;;;;5130451;28;20019;-75
2022/04/14 01:54:35;;;;;;;12.07;6.15;;;;;;;;;;5131202;27;20267;-76
2022/04/14 01:57:00;;;;;;;15.77;6.85;;;;;;;;;;5120049;28;20023;-81
2022/04/14 01:59:25;;;;;;;9.30;6.07;;;;;;;;;;5119951;28;20034;-77
2022/04/14 02:01:51;;;;;;;15.60;6.88;;;;;;;;;;5130421;28;20030;-74
2022/04/14 02:04:16;;;;;;;11.13;5.75;;;;;;;;;;5130436;28;20041;-77
2022/04/14 02:06:41;;;;;;;13.70;6.20;;;;;;;;;;5123712;27;20503;-73
2022/04/14 02:09:06;;;;;;;10.27;6.68;;;;;;;;;;5120638;28;20011;-73
2022/04/14 02:11:32;;;;;;;15.30;6.27;;;;;;;;;;5117932;28;20023;-74
2022/04/14 02:13:57;;;;;;;14.23;6.43;;;;;;;;;;5118984;28;20284;-73
2022/04/14 02:16:22;;;;;;;12.63;6.88;;;;;;;;;;5117089;28;20160;-75
2022/04/14 02:18:47;;;;;;;10.57;6.32;;;;;;;;;;5110757;28;20080;-74
2022/04/14 02:21:12;;;;;;;10.50;6.15;;;;;;;;;;5110423;28;20023;-74
2022/04/14 02:23:38;;;;;;;15.43;6.50;;;;;;;;;;5120207;28;20020;-74
2022/04/14 02:26:03;;;;;;;11.30;5.72;;;;;;;;;;5123593;27;20031;-75
2022/04/14 02:28:28;;;;;;;10.45;6.18;;;;;;;;;;5129996;27;20027;-76
2022/04/14 02:30:53;;;;;;;11.57;6.18;;;;;;;;;;5135525;27;20015;-75
2022/04/14 02:33:19;;;;;;;12.38;6.60;;;;;;;;;;5136907;27;20023;-74
2022/04/14 02:35:44;;;;;;;10.68;5.60;;;;;;;;;;5137315;27;20026;-73
2022/04/14 02:38:09;;;;;;;8.45;5.65;;;;;;;;;;5136634;27;20015;-75
2022/04/14 02:40:35;;;;;;;12.73;5.68;;;;;;;;;;5134495;27;20101;-76
2022/04/14 02:43:00;;;;;;;11.23;5.80;;;;;;;;;;5135144;27;20447;-73
2022/04/14 02:45:26;;;;;;;8.90;5.93;;;;;;;;;;5122263;27;20020;-76
2022/04/14 02:47:51;;;;;;;13.05;8.40;;;;;;;;;;5122336;27;20032;-76
2022/04/14 02:50:17;;;;;;;12.10;6.25;;;;;;;;;;5114813;27;20020;-74
2022/04/14 02:52:42;;;;;;;9.95;6.03;;;;;;;;;;5113355;28;20053;-75
2022/04/14 02:55:08;;;;;;;13.80;6.15;;;;;;;;;;5111750;28;20035;-75
2022/04/14 02:57:34;;;;;;;14.05;6.43;;;;;;;;;;5112743;28;20101;-75
2022/04/14 02:59:59;;;;;;;14.85;6.45;;;;;;;;;;5114028;28;20015;-75
2022/04/14 03:02:25;;;;;;;10.10;6.60;;;;;;;;;;5117613;28;20429;-78
2022/04/14 03:04:50;;;;;;;10.75;6.13;;;;;;;;;;5115088;28;20058;-73
2022/04/14 03:07:15;;;;;;;12.35;6.85;;;;;;;;;;5113214;28;20019;-75
2022/04/14 03:09:41;;;;;;;15.10;6.65;;;;;;;;;;5112627;28;20383;-75
2022/04/14 03:12:06;;;;;;;17.10;7.22;;;;;;;;;;5113269;28;20055;-75
2022/04/14 03:14:32;;;;;;;9.48;6.03;;;;;;;;;;5112470;28;20051;-74
2022/04/14 03:16:58;;;;;;;9.80;6.05;;;;;;;;;;5113122;28;20059;-75
2022/04/14 03:19:25;;;;;;;10.52;6.55;;;;;;;;;;5113309;27;20015;-74
2022/04/14 03:21:50;;;;;;;13.88;7.15;;;;;;;;;;5124036;27;20015;-73
2022/04/14 03:24:15;;;;;;;12.27;6.28;;;;;;;;;;5122053;27;20049;-75
2022/04/14 03:26:40;;;;;;;17.05;7.38;;;;;;;;;;5112610;28;20031;-74
2022/04/14 03:29:06;;;;;;;12.60;7.03;;;;;;;;;;5112282;28;20019;-75
2022/04/14 03:31:31;;;;;;;11.52;6.53;;;;;;;;;;5112822;28;20031;-75
2022/04/14 03:33:57;;;;;;;12.65;6.80;;;;;;;;;;5112323;28;20019;-74
2022/04/14 03:36:22;;;;;;;14.13;7.10;;;;;;;;;;5112817;28;20024;-74
2022/04/14 03:38:47;;;;;;;10.60;6.50;;;;;;;;;;5112568;28;20016;-73
2022/04/14 03:41:13;;;;;;;12.40;7.00;;;;;;;;;;5112149;28;20024;-76
2022/04/14 03:43:38;;;;;;;16.95;7.10;;;;;;;;;;5113877;28;20279;-75
2022/04/14 03:46:03;;;;;;;9.30;5.80;;;;;;;;;;5113072;28;20045;-76
2022/04/14 03:48:29;;;;;;;10.68;5.88;;;;;;;;;;5113154;27;20023;-77
2022/04/14 03:50:54;;;;;;;13.05;6.57;;;;;;;;;;5122559;27;20038;-73
2022/04/14 03:53:20;;;;;;;12.35;7.05;;;;;;;;;;5118849;27;20007;-74
2022/04/14 03:55:48;;;;;;;16.30;7.15;;;;;;;;;;5114276;27;20023;-74
2022/04/14 03:58:14;;;;;;;13.68;6.78;;;;;;;;;;5121388;27;20072;-75
2022/04/14 04:00:39;;;;;;;14.95;7.05;;;;;;;;;;5121730;27;20412;-76
2022/04/14 04:03:07;;;;;;;10.35;6.63;;;;;;;;;;5118766;27;20080;-74
2022/04/14 04:05:33;;;;;;;15.55;8.13;;;;;;;;;;5129616;27;20153;-75
2022/04/14 04:07:58;;;;;;;11.15;7.18;;;;;;;;;;5126067;27;20417;-77
2022/04/14 04:10:23;;;;;;;11.65;6.60;;;;;;;;;;5111999;28;20020;-74
2022/04/14 04:12:48;;;;;;;14.40;6.72;;;;;;;;;;5119393;27;20014;-79
2022/04/14 04:15:14;;;;;;;12.93;7.00;;;;;;;;;;5118137;27;20031;-74
2022/04/14 04:17:39;;;;;;;19.63;8.55;;;;;;;;;;5115990;27;20039;-76
2022/04/14 04:20:05;;;;;;;12.55;6.72;;;;;;;;;;5111171;28;20418;-74
2022/04/14 04:22:33;;;;;;;16.42;7.35;;;;;;;;;;5111167;28;20022;-75
2022/04/14 04:24:59;;;;;;;12.40;6.95;;;;;;;;;;5111548;28;20024;-76
2022/04/14 04:27:24;;;;;;;13.55;7.13;;;;;;;;;;5111415;28;20430;-75
2022/04/14 04:29:50;;;;;;;15.05;7.95;;;;;;;;;;5111263;28;20069;-76
2022/04/14 04:32:15;;;;;;;16.00;8.25;;;;;;;;;;5116738;27;20015;-75
2022/04/14 04:34:40;;;;;;;12.23;6.78;;;;;;;;;;5121267;27;20030;-76
2022/04/14 04:37:05;;;;;;;11.27;7.53;;;;;;;;;;5116107;27;20028;-81
2022/04/14 04:39:31;;;;;;;16.98;7.43;;;;;;;;;;5110758;28;20020;-76
2022/04/14 04:41:56;;;;;;;15.23;6.50;;;;;;;;;;5111385;28;20027;-77
2022/04/14 04:44:21;;;;;;;15.45;7.53;;;;;;;;;;5111151;28;20047;-80
2022/04/14 04:46:46;;;;;;;13.20;7.77;;;;;;;;;;5111316;28;20027;-74
2022/04/14 04:49:12;;;;;;;15.43;7.35;;;;;;;;;;5111499;28;20252;-76
2022/04/14 04:51:37;;;;;;;15.90;7.88;;;;;;;;;;5111398;28;20537;-75
2022/04/14 04:54:02;;;;;;;17.35;8.23;;;;;;;;;;5111011;28;20530;-75
2022/04/14 04:56:37;;;;;;;12.65;7.25;;;;;;;;;;5111512;27;20016;-74
2022/04/14 04:59:02;;;;;;;14.27;7.30;;;;;;;;;;5110764;28;20028;-76
2022/04/14 05:01:28;;;;;;;13.38;7.38;;;;;;;;;;5110368;28;20023;-75
2022/04/14 05:03:54;;;;;;;12.73;7.80;;;;;;;;;;5110901;28;20520;-75
2022/04/14 05:06:19;;;;;;;13.30;7.20;;;;;;;;;;5120371;27;20030;-74
2022/04/14 05:08:46;;;;;;;26.80;7.10;;;;;;;;;;5118233;27;20012;-74
2022/04/14 05:11:12;;;;;;;11.77;7.05;;;;;;;;;;5130579;27;20019;-76
2022/04/14 05:13:40;;;;;;;15.50;6.53;;;;;;;;;;5134250;27;20020;-75
2022/04/14 05:16:07;;;;;;;12.82;6.72;;;;;;;;;;5124288;27;20121;-78
2022/04/14 05:18:32;;;;;;;13.77;6.82;;;;;;;;;;5115452;28;20023;-75
2022/04/14 05:20:58;;;;;;;12.88;7.70;;;;;;;;;;5127403;28;20027;-87
2022/04/14 05:23:23;;;;;;;16.33;7.43;;;;;;;;;;5133472;27;20383;-86
2022/04/14 05:25:48;;;;;;;12.13;6.95;;;;;;;;;;5130479;28;20028;-75
2022/04/14 05:28:13;;;;;;;15.52;7.45;;;;;;;;;;5119487;28;20614;-80
2022/04/14 05:30:39;;;;;;;12.40;7.37;;;;;;;;;;5123379;28;20023;-82
2022/04/14 05:33:05;;;;;;;15.63;8.13;;;;;;;;;;5122077;28;20270;-90
2022/04/14 05:35:31;;;;;;;11.95;7.20;;;;;;;;;;5124272;27;20075;-83
2022/04/14 05:37:56;;;;;;;14.38;6.47;;;;;;;;;;5121872;28;20106;-82
2022/04/14 05:40:21;;;;;;;17.50;6.72;;;;;;;;;;5126165;28;20016;-76
2022/04/14 05:42:47;;;;;;;15.80;6.88;;;;;;;;;;5126755;28;20023;-85
2022/04/14 05:45:12;;;;;;;14.50;7.38;;;;;;;;;;5118808;28;20019;-76
2022/04/14 05:47:38;;;;;;;10.52;6.88;;;;;;;;;;5124606;28;20545;-85
2022/04/14 05:50:03;;;;;;;13.88;7.43;;;;;;;;;;5123258;28;20065;-85
2022/04/14 05:52:28;;;;;;;18.77;7.03;;;;;;;;;;5122641;28;20091;-86
2022/04/14 05:54:54;;;;;;;12.75;7.00;;;;;;;;;;5124541;28;20048;-83
2022/04/14 05:57:22;;;;;;;14.52;7.50;;;;;;;;;;5120075;27;20019;-75
2022/04/14 05:59:47;;;;;;;10.38;6.72;;;;;;;;;;5121234;27;20092;-76
2022/04/14 06:02:12;;;;;;;11.32;6.50;;;;;;;;;;5124178;27;20015;-75
2022/04/14 06:04:38;;;;;;;13.48;6.78;;;;;;;;;;5120864;27;20004;-76
2022/04/14 06:07:03;;;;;;;12.52;6.57;;;;;;;;;;5125351;27;20050;-76
2022/04/14 06:09:28;;;;;;;11.40;7.10;;;;;;;;;;5122199;27;20064;-74
2022/04/14 06:11:54;;;;;;;12.73;7.00;;;;;;;;;;5123824;27;20037;-73
2022/04/14 06:14:19;;;;;;;13.25;7.25;;;;;;;;;;5120810;27;20351;-75
2022/04/14 06:16:44;;;;;;;12.48;7.53;;;;;;;;;;5122853;27;20500;-75
2022/04/14 06:19:09;;;;;;;15.73;6.88;;;;;;;;;;5122490;27;20020;-76
2022/04/14 06:21:35;;;;;;;13.35;7.38;;;;;;;;;;5121530;27;20380;-74
2022/04/14 06:24:00;;;;;;;13.27;7.22;;;;;;;;;;5122236;27;20032;-75
2022/04/14 06:26:25;;;;;;;14.35;7.18;;;;;;;;;;5112826;28;20067;-76
2022/04/14 06:28:50;;;;;;;17.40;7.63;;;;;;;;;;5113985;28;20015;-76
2022/04/14 06:31:15;;;;;;;11.23;7.67;;;;;;;;;;5113862;28;20268;-76
2022/04/14 06:33:41;;;;;;;15.25;7.32;;;;;;;;;;5120056;27;20279;-75
2022/04/14 06:36:07;;;;;;;13.45;7.82;;;;;;;;;;5117083;27;20498;-75
2022/04/14 06:38:32;;;;;;;11.43;7.80;;;;;;;;;;5127002;27;20126;-75
2022/04/14 06:40:57;;;;;;;11.60;8.02;;;;;;;;;;5109150;27;20027;-77
2022/04/14 06:43:24;;;;;;;14.03;7.80;;;;;;;;;;5131216;27;20060;-77
2022/04/14 06:45:49;;;;;;;10.80;7.22;;;;;;;;;;5133192;27;20367;-78
2022/04/14 06:48:15;;;;;;;12.70;7.53;;;;;;;;;;5127514;27;20016;-76
2022/04/14 06:50:40;;;;;;;11.65;7.60;;;;;;;;;;5112201;28;20023;-76
2022/04/14 06:53:05;;;;;;;15.98;7.97;;;;;;;;;;5116857;28;20023;-75
2022/04/14 06:55:31;;;;;;;11.75;7.15;;;;;;;;;;5114749;27;20467;-74
2022/04/14 06:57:58;;;;;;;15.18;7.75;;;;;;;;;;5121452;27;20084;-75
2022/04/14 07:00:23;;;;;;;10.43;7.30;;;;;;;;;;5120705;27;20102;-76
2022/04/14 07:02:50;;;;;;;12.57;7.78;;;;;;;;;;5122049;27;20555;-75
2022/04/14 07:05:15;;;;;;;12.13;6.88;;;;;;;;;;5120237;27;20117;-75
2022/04/14 07:07:40;;;;;;;14.13;7.78;;;;;;;;;;5122874;27;20110;-76
2022/04/14 07:10:06;;;;;;;13.57;7.60;;;;;;;;;;5126653;27;20508;-74
2022/04/14 07:12:31;;;;;;;13.73;7.63;;;;;;;;;;5119497;27;20995;-76
2022/04/14 07:15:00;;;;;;;17.95;8.80;;;;;;;;;;5120648;27;20012;-76
2022/04/14 07:17:26;;;;;;;9.68;7.03;;;;;;;;;;5122014;27;20023;-75
2022/04/14 07:19:51;;;;;;;13.98;7.38;;;;;;;;;;5124129;27;20015;-75
2022/04/14 07:22:18;;;;;;;14.15;7.55;;;;;;;;;;5126882;27;20015;-86
2022/04/14 07:24:43;;;;;;;9.57;6.60;;;;;;;;;;5118699;27;20077;-75
2022/04/14 07:27:10;;;;;;;14.30;7.70;;;;;;;;;;5130196;27;20035;-76
2022/04/14 07:29:35;;;;;;;10.00;6.63;;;;;;;;;;5125156;27;20297;-75
2022/04/14 07:32:01;;;;;;;10.68;6.88;;;;;;;;;;5120101;27;20031;-74
2022/04/14 07:34:27;;;;;;;12.90;6.25;;;;;;;;;;5111520;28;20102;-74
2022/04/14 07:36:52;;;;;;;13.50;6.70;;;;;;;;;;5111985;28;20012;-74
2022/04/14 07:39:18;;;;;;;11.97;6.27;;;;;;;;;;5112050;28;20038;-76
2022/04/14 07:41:43;;;;;;;15.85;7.22;;;;;;;;;;5111390;28;20256;-76
2022/04/14 07:44:08;;;;;;;15.83;6.40;;;;;;;;;;5113007;27;20503;-76
2022/04/14 07:46:37;;;;;;;11.30;5.88;;;;;;;;;;5118400;27;20344;-75
2022/04/14 07:49:02;;;;;;;9.38;6.15;;;;;;;;;;5116198;27;20055;-75
2022/04/14 07:51:27;;;;;;;10.13;6.45;;;;;;;;;;5122723;27;20110;-75
2022/04/14 07:53:53;;;;;;;17.55;6.63;;;;;;;;;;5119799;27;20023;-77
2022/04/14 07:56:20;;;;;;;9.93;5.75;;;;;;;;;;5115130;28;20019;-77
2022/04/14 07:58:45;;;;;;;11.15;6.00;;;;;;;;;;5116372;27;20617;-75
2022/04/14 08:01:11;;;;;;;8.75;5.93;;;;;;;;;;5118230;27;20015;-75
2022/04/14 08:03:38;;;;;;;9.37;5.77;;;;;;;;;;5114299;27;20380;-74
2022/04/14 08:06:03;;;;;;;11.30;5.97;;;;;;;;;;5114350;27;20287;-75
2022/04/14 08:08:29;;;;;;;9.88;6.63;;;;;;;;;;5112799;27;20522;-75
2022/04/14 08:10:54;;;;;;;10.63;6.63;;;;;;;;;;5120770;27;20023;-75
2022/04/14 08:13:19;;;;;;;10.53;6.27;;;;;;;;;;5126102;27;20252;-73
2022/04/14 08:15:44;;;;;;;9.13;6.18;;;;;;;;;;5118055;27;20780;-75
2022/04/14 08:18:10;;;;;;;10.35;6.30;;;;;;;;;;5116092;27;20045;-74
2022/04/14 08:20:39;;;;;;;10.15;6.93;;;;;;;;;;5123143;27;20039;-73
2022/04/14 08:23:04;;;;;;;9.75;6.40;;;;;;;;;;5110459;28;20012;-74
2022/04/14 08:25:31;;;;;;;10.43;6.28;;;;;;;;;;5124011;27;20027;-77
2022/04/14 08:27:58;;;;;;;9.25;5.82;;;;;;;;;;5131543;27;20013;-74
2022/04/14 08:30:23;;;;;;;8.43;5.72;;;;;;;;;;5132155;27;20019;-74
2022/04/14 08:32:50;;;;;;;9.80;5.93;;;;;;;;;;5122285;27;20018;-75
2022/04/14 08:35:16;;;;;;;8.73;5.00;;;;;;;;;;5111419;28;20053;-74
2022/04/14 08:37:42;;;;;;;9.52;5.05;;;;;;;;;;5111397;28;20043;-75
2022/04/14 08:40:08;;;;;;;9.38;5.45;;;;;;;;;;5111482;28;20016;-74
2022/04/14 08:42:52;;;;;;;9.52;5.20;;;;;;;;;;5110930;28;20020;-74
2022/04/14 08:45:18;;;;;;;8.70;5.00;;;;;;;;;;5111000;28;20122;-74
2022/04/14 08:47:44;;;;;;;9.27;5.85;;;;;;;;;;5107855;27;20035;-74
2022/04/14 08:50:10;;;;;;;28.77;6.10;;;;;;;;;;5110414;28;20034;-75
2022/04/14 08:52:36;;;;;;;10.43;5.95;;;;;;;;;;5110269;28;20031;-75
2022/04/14 08:55:05;;;;;;;11.70;6.10;;;;;;;;;;5120527;27;20383;-77
2022/04/14 08:57:31;;;;;;;9.73;5.75;;;;;;;;;;5109326;27;20099;-76
2022/04/14 08:59:57;;;;;;;16.15;6.63;;;;;;;;;;5124243;27;20383;-76
2022/04/14 09:02:23;;;;;;;8.45;6.03;;;;;;;;;;5132817;27;20023;-78
2022/04/14 09:04:49;;;;;;;8.38;5.63;;;;;;;;;;5131132;27;20023;-78
2022/04/14 09:07:15;;;;;;;8.40;5.55;;;;;;;;;;5132096;27;20059;-77
2022/04/14 09:09:41;;;;;;;10.07;5.85;;;;;;;;;;5112430;28;20088;-78
2022/04/14 09:12:06;;;;;;;6.63;4.47;;;;;;;;;;5112219;28;20027;-79
2022/04/14 09:14:34;;;;;;;7.90;4.82;;;;;;;;;;5110098;28;20024;-79
2022/04/14 09:17:00;;;;;;;10.02;5.30;;;;;;;;;;5110483;28;20043;-80
2022/04/14 09:19:28;;;;;;;5.45;3.53;;;;;;;;;;5110399;28;20077;-82
2022/04/14 09:22:00;;;;;;;8.15;3.90;;;;;;;;;;5111449;28;20102;-79
2022/04/14 09:24:38;;;;;;;7.05;4.30;;;;;;;;;;5110609;28;20103;-81
2022/04/14 09:27:03;;;;;;;10.18;4.25;;;;;;;;;;5112497;28;20044;-79
2022/04/14 09:29:29;;;;;;;5.78;3.55;;;;;;;;;;5130828;27;20022;-76
2022/04/14 09:31:54;;;;;;;6.27;4.20;;;;;;;;;;5131047;28;20356;-80
2022/04/14 09:34:38;;;;;;;6.63;4.00;;;;;;;;;;5133042;27;20259;-76
2022/04/14 09:37:09;;;;;;;6.53;4.28;;;;;;;;;;5137306;27;20087;-75
2022/04/14 09:39:56;;;;;;;5.47;3.88;;;;;;;;;;5141619;27;20019;-76
2022/04/14 09:42:22;;;;;;;6.85;3.88;;;;;;;;;;5127414;27;20081;-77
2022/04/14 09:44:48;;;;;;;6.30;3.80;;;;;;;;;;5135361;27;20068;-76
2022/04/14 09:47:37;;;;;;;7.53;4.10;;;;;;;;;;5118032;27;20043;-75
2022/04/14 09:50:02;;;;;;;7.60;4.03;;;;;;;;;;5106929;28;20020;-74
2022/04/14 09:52:28;;;;;;;5.28;3.67;;;;;;;;;;5114950;28;20388;-77
2022/04/14 09:55:06;;;;;;;6.60;4.33;;;;;;;;;;5117199;27;20447;-76
2022/04/14 09:57:32;;;;;;;7.95;4.10;;;;;;;;;;5115034;27;20318;-76
2022/04/14 09:59:57;;;;;;;6.00;4.23;;;;;;;;;;5114719;28;20032;-75
2022/04/14 10:02:23;;;;;;;8.25;4.22;;;;;;;;;;5113407;28;20783;-76
2022/04/14 10:04:48;;;;;;;6.17;4.13;;;;;;;;;;5111224;28;20380;-78
2022/04/14 10:07:23;;;;;;;8.07;4.05;;;;;;;;;;5114639;28;20047;-74
2022/04/14 10:09:49;;;;;;;5.22;4.03;;;;;;;;;;5114718;28;20028;-77
2022/04/14 10:12:20;;;;;;;5.20;3.72;;;;;;;;;;5114555;28;20030;-77
2022/04/14 10:15:03;;;;;;;5.78;4.40;;;;;;;;;;5113649;28;20019;-75
2022/04/14 10:17:33;;;;;;;6.18;3.92;;;;;;;;;;5114140;28;20028;-78
2022/04/14 10:19:58;;;;;;;5.80;3.83;;;;;;;;;;5114006;28;20023;-74
2022/04/14 10:22:24;;;;;;;7.47;4.15;;;;;;;;;;5113757;28;20042;-79
2022/04/14 10:24:51;;;;;;;6.22;3.70;;;;;;;;;;5113427;28;20494;-75
2022/04/14 10:27:18;;;;;;;6.97;3.95;;;;;;;;;;5112820;28;20039;-74
2022/04/14 10:29:44;;;;;;;8.65;3.80;;;;;;;;;;5114274;27;20024;-78
2022/04/14 10:32:11;;;;;;;7.28;3.53;;;;;;;;;;5127909;27;20027;-76
2022/04/14 10:34:36;;;;;;;10.32;3.53;;;;;;;;;;5114636;27;20051;-77
2022/04/14 10:37:03;;;;;;;6.43;4.07;;;;;;;;;;5119564;27;20062;-78
2022/04/14 10:39:29;;;;;;;6.55;3.65;;;;;;;;;;5120278;27;20040;-79
2022/04/14 10:41:54;;;;;;;6.80;3.88;;;;;;;;;;5118561;27;20052;-79
2022/04/14 10:44:22;;;;;;;6.77;3.70;;;;;;;;;;5133113;27;20045;-76
2022/04/14 10:46:50;;;;;;;7.72;4.07;;;;;;;;;;5132604;27;20283;-76
2022/04/14 10:49:25;;;;;;;7.93;3.95;;;;;;;;;;5125739;27;20472;-76
2022/04/14 10:51:50;;;;;;;;;;;;;;;;;;5112888;28;20639;-78
2022/04/14 10:54:18;;;;;;;5.13;3.83;;;;;;;;;;5108255;28;20443;-76
2022/04/14 10:56:45;;;;;;;13.23;4.35;;;;;;;;;;5113074;28;20036;-76
2022/04/14 10:59:11;;;;;;;7.80;3.67;;;;;;;;;;5113425;27;20028;-77
2022/04/14 11:01:55;;;;;;;8.60;4.05;;;;;;;;;;5113489;28;20042;-74
2022/04/14 11:04:35;;;;;;;6.18;4.03;;;;;;;;;;5113537;28;20482;-81
2022/04/14 11:07:08;;;;;;;5.22;4.00;;;;;;;;;;5113321;27;20054;-76
2022/04/14 11:09:42;;;;;;;7.40;3.85;;;;;;;;;;5133559;27;20027;-78
2022/04/14 11:12:23;;;;;;;6.65;4.10;;;;;;;;;;5133440;27;20395;-77
2022/04/14 11:15:04;;;;;;;7.57;4.45;;;;;;;;;;5133299;27;20031;-77
2022/04/14 11:17:33;;;;;;;9.15;4.43;;;;;;;;;;5133249;27;20035;-75
2022/04/14 11:20:33;;;;;;;6.53;4.10;;;;;;;;;;5133951;27;20110;-75
2022/04/14 11:23:02;;;;;;;6.50;3.90;;;;;;;;;;5089607;27;20039;-75
2022/04/14 11:25:39;;;;;;;7.10;4.07;;;;;;;;;;5133245;27;20035;-76
2022/04/14 11:28:27;;;;;;;5.50;3.92;;;;;;;;;;5133165;27;20061;-74
2022/04/14 11:30:56;;;;;;;9.60;4.55;;;;;;;;;;5132668;27;20106;-77
2022/04/14 11:33:25;;;;;;;6.03;4.05;;;;;;;;;;5132894;27;20102;-75
2022/04/14 11:35:50;;;;;;;10.38;3.88;;;;;;;;;;5132902;27;20567;-77
2022/04/14 11:38:34;;;;;;;7.15;4.15;;;;;;;;;;5134242;27;20138;-74
2022/04/14 11:40:59;;;;;;;6.75;3.97;;;;;;;;;;5134312;27;20019;-75
2022/04/14 11:43:24;;;;;;;10.20;4.40;;;;;;;;;;5127226;27;20472;-74
2022/04/14 11:45:50;;;;;;;5.90;3.90;;;;;;;;;;5124753;27;20035;-76
2022/04/14 11:48:15;;;;;;;8.95;3.83;;;;;;;;;;5125921;27;20015;-76
2022/04/14 11:50:40;;;;;;;8.17;4.10;;;;;;;;;;5124848;27;20020;-77
2022/04/14 11:53:06;;;;;;;6.77;3.30;;;;;;;;;;5123247;27;20027;-81
2022/04/14 11:55:38;;;;;;;5.97;3.83;;;;;;;;;;5121203;27;20023;-75
2022/04/14 11:58:11;;;;;;;6.95;3.63;;;;;;;;;;5123396;27;20267;-79
2022/04/14 12:00:42;;;;;;;5.90;3.88;;;;;;;;;;5125144;27;20480;-79
2022/04/14 12:03:08;;;;;;;7.63;3.72;;;;;;;;;;5122958;27;20076;-76
2022/04/14 12:05:33;;;;;;;5.70;3.67;;;;;;;;;;5120234;27;20035;-75
2022/04/14 12:08:05;;;;;;;8.00;3.63;;;;;;;;;;5122227;27;20029;-75
2022/04/14 12:10:31;;;;;;;7.05;4.15;;;;;;;;;;5120681;27;20019;-77
2022/04/14 12:13:04;;;;;;;7.83;3.70;;;;;;;;;;5120529;27;20575;-75
2022/04/14 12:15:29;;;;;;;14.98;3.92;;;;;;;;;;5119325;27;20051;-73
2022/04/14 12:18:03;;;;;;;4.60;3.20;;;;;;;;;;5120758;27;20067;-73
2022/04/14 12:20:34;;;;;;;4.28;2.95;;;;;;;;;;5121898;27;20012;-73
2022/04/14 12:22:59;;;;;;;6.03;3.45;;;;;;;;;;5120015;27;20404;-74
2022/04/14 12:25:24;;;;;;;6.50;3.30;;;;;;;;;;5120313;27;20049;-74
2022/04/14 12:27:50;;;;;;;6.10;3.40;;;;;;;;;;5121552;27;20300;-74
2022/04/14 12:30:15;;;;;;;7.00;3.20;;;;;;;;;;5119438;27;20007;-74
2022/04/14 12:32:43;;;;;;;6.03;3.50;;;;;;;;;;5121171;27;20015;-76
2022/04/14 12:35:10;;;;;;;5.43;3.15;;;;;;;;;;5120613;27;20543;-75
2022/04/14 12:37:41;;;;;;;6.15;3.15;;;;;;;;;;5119870;27;20027;-76
2022/04/14 12:40:15;;;;;;;5.32;3.05;;;;;;;;;;5120322;27;20042;-75
2022/04/14 12:42:43;;;;;;;6.40;3.22;;;;;;;;;;5118660;27;20050;-74
2022/04/14 12:45:10;;;;;;;5.10;3.25;;;;;;;;;;5120767;27;20383;-72
2022/04/14 12:47:35;;;;;;;6.55;3.40;;;;;;;;;;5118527;27;20034;-73
2022/04/14 12:50:02;;;;;;;5.50;3.55;;;;;;;;;;5120325;27;20386;-74
2022/04/14 12:52:27;;;;;;;4.68;3.15;;;;;;;;;;5118673;27;20019;-75
2022/04/14 12:54:53;;;;;;;5.25;3.15;;;;;;;;;;5120987;27;20064;-74
2022/04/14 12:57:29;;;;;;;6.63;3.70;;;;;;;;;;5119232;27;20011;-75
2022/04/14 13:00:19;;;;;;;7.57;3.00;;;;;;;;;;5119128;27;20031;-73
2022/04/14 13:02:59;;;;;;;5.80;2.95;;;;;;;;;;5120311;27;20066;-74
2022/04/14 13:05:26;;;;;;;5.07;3.30;;;;;;;;;;5119913;27;20341;-74
2022/04/14 13:07:53;;;;;;;6.68;3.88;;;;;;;;;;5119139;27;20103;-75
2022/04/14 13:10:23;;;;;;;7.97;3.58;;;;;;;;;;5116063;27;20011;-76
2022/04/14 13:12:48;;;;;;;4.78;3.10;;;;;;;;;;5122680;27;20071;-75
2022/04/14 13:15:14;;;;;;;4.03;2.73;;;;;;;;;;5120673;27;20043;-74
2022/04/14 13:17:42;;;;;;;7.65;3.97;;;;;;;;;;5121986;27;20271;-73
2022/04/14 13:20:17;;;;;;;5.85;2.90;;;;;;;;;;5121530;27;20019;-75
2022/04/14 13:22:43;;;;;;;6.03;2.78;;;;;;;;;;5119605;28;20015;-76
2022/04/14 13:25:08;;;;;;;6.25;2.92;;;;;;;;;;5119186;27;20366;-75
2022/04/14 13:27:34;;;;;;;6.57;2.90;;;;;;;;;;5120861;28;20067;-73
2022/04/14 13:30:00;;;;;;;5.70;2.95;;;;;;;;;;5110624;28;20034;-75
2022/04/14 13:32:26;;;;;;;5.18;3.38;;;;;;;;;;5117723;28;20042;-74
2022/04/14 13:34:51;;;;;;;5.00;3.03;;;;;;;;;;5118486;28;20048;-74
2022/04/14 13:37:16;;;;;;;5.30;3.00;;;;;;;;;;5119534;28;20037;-74
2022/04/14 13:39:41;;;;;;;4.90;2.90;;;;;;;;;;5120614;28;20024;-74
2022/04/14 13:42:06;;;;;;;3.87;2.87;;;;;;;;;;5114270;28;20688;-74
2022/04/14 13:44:32;;;;;;;7.37;3.10;;;;;;;;;;5118228;28;20478;-74
2022/04/14 13:46:57;;;;;;;4.03;2.80;;;;;;;;;;5117775;28;20462;-75
2022/04/14 13:49:23;;;;;;;6.15;2.85;;;;;;;;;;5118351;28;20098;-72
2022/04/14 13:51:49;;;;;;;3.67;2.75;;;;;;;;;;5120261;28;20037;-73
2022/04/14 13:54:16;;;;;;;4.05;2.75;;;;;;;;;;5118308;28;20361;-75
2022/04/14 13:56:41;;;;;;;5.90;2.90;;;;;;;;;;5118727;27;20058;-73
2022/04/14 13:59:06;;;;;;;5.40;2.85;;;;;;;;;;5118906;28;20416;-74
2022/04/14 14:01:32;;;;;;;4.40;3.03;;;;;;;;;;5110341;28;20026;-74
2022/04/14 14:03:57;;;;;;;5.35;2.95;;;;;;;;;;5113159;28;20058;-72
2022/04/14 14:06:22;;;;;;;6.27;2.80;;;;;;;;;;5130716;28;20066;-74
2022/04/14 14:08:48;;;;;;;6.15;3.30;;;;;;;;;;5129697;27;20792;-75
2022/04/14 14:11:13;;;;;;;4.15;2.90;;;;;;;;;;5132427;27;20430;-74
2022/04/14 14:13:38;;;;;;;4.45;3.08;;;;;;;;;;5134594;28;20041;-75
2022/04/14 14:16:04;;;;;;;4.47;2.77;;;;;;;;;;5122136;28;20062;-77
2022/04/14 14:18:29;;;;;;;3.35;2.35;;;;;;;;;;5128932;27;20072;-76
2022/04/14 14:20:54;;;;;;;6.17;2.80;;;;;;;;;;5130449;27;20451;-76
2022/04/14 14:23:20;;;;;;;5.87;3.10;;;;;;;;;;5132760;27;20255;-76
2022/04/14 14:25:45;;;;;;;6.22;2.60;;;;;;;;;;5133554;27;20643;-74
2022/04/14 14:28:10;;;;;;;5.05;2.75;;;;;;;;;;5134088;27;20076;-74
2022/04/14 14:30:36;;;;;;;4.53;3.38;;;;;;;;;;5133628;27;20069;-75
2022/04/14 14:33:02;;;;;;;5.18;3.10;;;;;;;;;;5134693;27;20053;-76